sensor_id;sensor_type;location;lat;lon;timestamp;P1;durP1;ratioP1;P2;durP2;ratioP2
28086;SDS011;15392;48.912;8.380;2024-03-02T00:00:18;0.10;;;0.10;;
28086;SDS011;15392;48.912;8.380;2024-03-02T00:03:06;0.10;;;0.10;;
28086;SDS011;15392;48.912;8.380;2024-03-02T00:05:54;0.20;;;0.20;;
28086;SDS011;15392;48.912;8.380;2024-03-02T00:08:41;0.15;;;0.15;;
28086;SDS011;15392;48.912;8.380;2024-03-02T00:11:27;0.10;;;0.10;;
28086;SDS011;15392;48.912;8.380;2024-03-02T00:14:13;0.20;;;0.20;;
28086;SDS011;15392;48.912;8.380;2024-03-02T00:16:59;0.20;;;0.20;;
28086;SDS011;15392;48.912;8.380;2024-03-02T00:19:45;0.30;;;0.30;;
28086;SDS011;15392;48.912;8.380;2024-03-02T00:22:31;0.22;;;0.22;;
28086;SDS011;15392;48.912;8.380;2024-03-02T00:25:22;0.10;;;0.10;;
28086;SDS011;15392;48.912;8.380;2024-03-02T00:28:13;0.10;;;0.10;;
28086;SDS011;15392;48.912;8.380;2024-03-02T00:31:09;0.10;;;0.10;;
28086;SDS011;15392;48.912;8.380;2024-03-02T00:33:57;0.10;;;0.10;;
28086;SDS011;15392;48.912;8.380;2024-03-02T00:36:49;0.20;;;0.20;;
28086;SDS011;15392;48.912;8.380;2024-03-02T00:39:35;0.15;;;0.15;;
28086;SDS011;15392;48.912;8.380;2024-03-02T00:42:21;0.52;;;0.52;;
28086;SDS011;15392;48.912;8.380;2024-03-02T00:45:10;0.70;;;0.70;;
28086;SDS011;15392;48.912;8.380;2024-03-02T00:47:57;0.60;;;0.60;;
28086;SDS011;15392;48.912;8.380;2024-03-02T00:50:43;0.70;;;0.70;;
28086;SDS011;15392;48.912;8.380;2024-03-02T00:53:30;0.75;;;0.75;;
28086;SDS011;15392;48.912;8.380;2024-03-02T00:56:18;0.40;;;0.40;;
28086;SDS011;15392;48.912;8.380;2024-03-02T00:59:04;0.40;;;0.40;;
28086;SDS011;15392;48.912;8.380;2024-03-02T01:01:51;0.30;;;0.30;;
28086;SDS011;15392;48.912;8.380;2024-03-02T01:04:37;0.30;;;0.30;;
28086;SDS011;15392;48.912;8.380;2024-03-02T01:07:23;0.20;;;0.20;;
28086;SDS011;15392;48.912;8.380;2024-03-02T01:10:09;0.50;;;0.20;;
28086;SDS011;15392;48.912;8.380;2024-03-02T01:12:56;0.20;;;0.20;;
28086;SDS011;15392;48.912;8.380;2024-03-02T01:15:42;0.15;;;0.13;;
28086;SDS011;15392;48.912;8.380;2024-03-02T01:18:28;0.10;;;0.10;;
28086;SDS011;15392;48.912;8.380;2024-03-02T01:21:14;0.70;;;0.70;;
28086;SDS011;15392;48.912;8.380;2024-03-02T01:24:00;0.70;;;0.70;;
28086;SDS011;15392;48.912;8.380;2024-03-02T01:26:46;0.50;;;0.50;;
28086;SDS011;15392;48.912;8.380;2024-03-02T01:29:32;0.47;;;0.47;;
28086;SDS011;15392;48.912;8.380;2024-03-02T01:32:18;0.40;;;0.40;;
28086;SDS011;15392;48.912;8.380;2024-03-02T01:35:05;0.30;;;0.30;;
28086;SDS011;15392;48.912;8.380;2024-03-02T01:37:52;0.30;;;0.30;;
28086;SDS011;15392;48.912;8.380;2024-03-02T01:40:38;0.22;;;0.22;;
28086;SDS011;15392;48.912;8.380;2024-03-02T01:43:25;0.40;;;0.40;;
28086;SDS011;15392;48.912;8.380;2024-03-02T01:46:11;0.20;;;0.20;;
28086;SDS011;15392;48.912;8.380;2024-03-02T01:48:57;0.30;;;0.20;;
28086;SDS011;15392;48.912;8.380;2024-03-02T01:51:43;0.22;;;0.22;;
28086;SDS011;15392;48.912;8.380;2024-03-02T01:54:29;0.20;;;0.20;;
28086;SDS011;15392;48.912;8.380;2024-03-02T01:57:15;0.10;;;0.10;;
28086;SDS011;15392;48.912;8.380;2024-03-02T02:00:02;0.10;;;0.10;;
28086;SDS011;15392;48.912;8.380;2024-03-02T02:02:48;0.20;;;0.20;;
28086;SDS011;15392;48.912;8.380;2024-03-02T02:05:35;0.20;;;0.20;;
28086;SDS011;15392;48.912;8.380;2024-03-02T02:08:21;0.20;;;0.20;;
28086;SDS011;15392;48.912;8.380;2024-03-02T02:11:07;0.10;;;0.10;;
28086;SDS011;15392;48.912;8.380;2024-03-02T02:13:53;0.10;;;0.10;;
28086;SDS011;15392;48.912;8.380;2024-03-02T02:16:41;0.20;;;0.20;;
28086;SDS011;15392;48.912;8.380;2024-03-02T02:19:27;0.20;;;0.20;;
28086;SDS011;15392;48.912;8.380;2024-03-02T02:22:13;0.20;;;0.20;;
28086;SDS011;15392;48.912;8.380;2024-03-02T02:24:59;0.10;;;0.10;;
28086;SDS011;15392;48.912;8.380;2024-03-02T02:27:45;0.30;;;0.30;;
28086;SDS011;15392;48.912;8.380;2024-03-02T02:30:31;0.10;;;0.10;;
28086;SDS011;15392;48.912;8.380;2024-03-02T02:33:18;0.10;;;0.10;;
28086;SDS011;15392;48.912;8.380;2024-03-02T02:36:04;0.15;;;0.15;;
28086;SDS011;15392;48.912;8.380;2024-03-02T02:38:50;0.20;;;0.20;;
28086;SDS011;15392;48.912;8.380;2024-03-02T02:41:36;0.17;;;0.17;;
28086;SDS011;15392;48.912;8.380;2024-03-02T02:44:23;0.20;;;0.20;;
28086;SDS011;15392;48.912;8.380;2024-03-02T02:47:09;0.20;;;0.20;;
28086;SDS011;15392;48.912;8.380;2024-03-02T02:49:55;0.20;;;0.20;;
28086;SDS011;15392;48.912;8.380;2024-03-02T02:52:42;0.15;;;0.15;;
28086;SDS011;15392;48.912;8.380;2024-03-02T02:55:28;0.22;;;0.22;;
28086;SDS011;15392;48.912;8.380;2024-03-02T02:58:14;0.20;;;0.20;;
28086;SDS011;15392;48.912;8.380;2024-03-02T03:01:00;0.10;;;0.10;;
28086;SDS011;15392;48.912;8.380;2024-03-02T03:03:47;0.20;;;0.20;;
28086;SDS011;15392;48.912;8.380;2024-03-02T03:06:33;0.20;;;0.20;;
28086;SDS011;15392;48.912;8.380;2024-03-02T03:09:19;0.20;;;0.20;;
28086;SDS011;15392;48.912;8.380;2024-03-02T03:12:06;0.30;;;0.30;;
28086;SDS011;15392;48.912;8.380;2024-03-02T03:14:52;0.28;;;0.28;;
28086;SDS011;15392;48.912;8.380;2024-03-02T03:17:38;0.20;;;0.20;;
28086;SDS011;15392;48.912;8.380;2024-03-02T03:20:24;0.28;;;0.28;;
28086;SDS011;15392;48.912;8.380;2024-03-02T03:23:10;0.28;;;0.28;;
28086;SDS011;15392;48.912;8.380;2024-03-02T03:26:00;0.20;;;0.20;;
28086;SDS011;15392;48.912;8.380;2024-03-02T03:28:46;0.30;;;0.30;;
28086;SDS011;15392;48.912;8.380;2024-03-02T03:31:32;0.20;;;0.20;;
28086;SDS011;15392;48.912;8.380;2024-03-02T03:34:18;0.28;;;0.28;;
28086;SDS011;15392;48.912;8.380;2024-03-02T03:37:04;0.25;;;0.20;;
28086;SDS011;15392;48.912;8.380;2024-03-02T03:39:50;0.20;;;0.20;;
28086;SDS011;15392;48.912;8.380;2024-03-02T03:42:36;0.22;;;0.22;;
28086;SDS011;15392;48.912;8.380;2024-03-02T03:45:23;0.20;;;0.20;;
28086;SDS011;15392;48.912;8.380;2024-03-02T03:48:11;0.20;;;0.20;;
28086;SDS011;15392;48.912;8.380;2024-03-02T03:50:57;0.20;;;0.20;;
28086;SDS011;15392;48.912;8.380;2024-03-02T03:53:43;0.20;;;0.20;;
28086;SDS011;15392;48.912;8.380;2024-03-02T03:56:29;0.40;;;0.40;;
28086;SDS011;15392;48.912;8.380;2024-03-02T03:59:15;0.38;;;0.35;;
28086;SDS011;15392;48.912;8.380;2024-03-02T04:02:01;0.50;;;0.50;;
28086;SDS011;15392;48.912;8.380;2024-03-02T04:04:48;0.50;;;0.50;;
28086;SDS011;15392;48.912;8.380;2024-03-02T04:07:35;0.40;;;0.40;;
28086;SDS011;15392;48.912;8.380;2024-03-02T04:10:28;0.47;;;0.47;;
28086;SDS011;15392;48.912;8.380;2024-03-02T04:13:15;0.88;;;0.63;;
28086;SDS011;15392;48.912;8.380;2024-03-02T04:16:01;0.40;;;0.40;;
28086;SDS011;15392;48.912;8.380;2024-03-02T04:18:49;0.60;;;0.60;;
28086;SDS011;15392;48.912;8.380;2024-03-02T04:21:35;0.35;;;0.35;;
28086;SDS011;15392;48.912;8.380;2024-03-02T04:24:21;0.45;;;0.45;;
28086;SDS011;15392;48.912;8.380;2024-03-02T04:27:07;0.43;;;0.43;;
28086;SDS011;15392;48.912;8.380;2024-03-02T04:29:53;0.40;;;0.40;;
28086;SDS011;15392;48.912;8.380;2024-03-02T04:32:39;0.40;;;0.40;;
28086;SDS011;15392;48.912;8.380;2024-03-02T04:35:25;0.32;;;0.32;;
28086;SDS011;15392;48.912;8.380;2024-03-02T04:38:11;0.30;;;0.30;;
28086;SDS011;15392;48.912;8.380;2024-03-02T04:40:57;0.38;;;0.38;;
28086;SDS011;15392;48.912;8.380;2024-03-02T04:43:43;0.30;;;0.30;;
28086;SDS011;15392;48.912;8.380;2024-03-02T04:46:29;0.17;;;0.17;;
28086;SDS011;15392;48.912;8.380;2024-03-02T04:49:16;0.20;;;0.20;;
28086;SDS011;15392;48.912;8.380;2024-03-02T04:52:03;0.17;;;0.17;;
28086;SDS011;15392;48.912;8.380;2024-03-02T04:54:49;0.20;;;0.20;;
28086;SDS011;15392;48.912;8.380;2024-03-02T04:57:53;0.30;;;0.30;;
28086;SDS011;15392;48.912;8.380;2024-03-02T05:00:42;0.20;;;0.20;;
28086;SDS011;15392;48.912;8.380;2024-03-02T05:03:31;0.30;;;0.30;;
28086;SDS011;15392;48.912;8.380;2024-03-02T05:06:20;0.20;;;0.20;;
28086;SDS011;15392;48.912;8.380;2024-03-02T05:09:06;0.28;;;0.28;;
28086;SDS011;15392;48.912;8.380;2024-03-02T05:11:53;0.55;;;0.20;;
28086;SDS011;15392;48.912;8.380;2024-03-02T05:14:55;0.45;;;0.20;;
28086;SDS011;15392;48.912;8.380;2024-03-02T05:17:42;0.13;;;0.13;;
28086;SDS011;15392;48.912;8.380;2024-03-02T05:20:28;0.20;;;0.20;;
28086;SDS011;15392;48.912;8.380;2024-03-02T05:23:14;0.20;;;0.20;;
28086;SDS011;15392;48.912;8.380;2024-03-02T05:26:00;0.20;;;0.20;;
28086;SDS011;15392;48.912;8.380;2024-03-02T05:28:46;0.28;;;0.28;;
28086;SDS011;15392;48.912;8.380;2024-03-02T05:31:32;0.32;;;0.30;;
28086;SDS011;15392;48.912;8.380;2024-03-02T05:34:18;0.20;;;0.20;;
28086;SDS011;15392;48.912;8.380;2024-03-02T05:37:04;0.28;;;0.28;;
28086;SDS011;15392;48.912;8.380;2024-03-02T05:39:50;0.20;;;0.20;;
28086;SDS011;15392;48.912;8.380;2024-03-02T05:42:36;0.30;;;0.30;;
28086;SDS011;15392;48.912;8.380;2024-03-02T05:45:23;0.20;;;0.20;;
28086;SDS011;15392;48.912;8.380;2024-03-02T05:48:09;0.40;;;0.40;;
28086;SDS011;15392;48.912;8.380;2024-03-02T05:50:55;0.50;;;0.50;;
28086;SDS011;15392;48.912;8.380;2024-03-02T05:53:41;0.30;;;0.30;;
28086;SDS011;15392;48.912;8.380;2024-03-02T05:56:28;0.35;;;0.35;;
28086;SDS011;15392;48.912;8.380;2024-03-02T05:59:14;0.38;;;0.38;;
28086;SDS011;15392;48.912;8.380;2024-03-02T06:02:01;0.30;;;0.30;;
28086;SDS011;15392;48.912;8.380;2024-03-02T06:04:50;0.40;;;0.40;;
28086;SDS011;15392;48.912;8.380;2024-03-02T06:07:36;0.40;;;0.40;;
28086;SDS011;15392;48.912;8.380;2024-03-02T06:10:22;0.30;;;0.30;;
28086;SDS011;15392;48.912;8.380;2024-03-02T06:13:08;0.30;;;0.30;;
28086;SDS011;15392;48.912;8.380;2024-03-02T06:15:54;0.20;;;0.20;;
28086;SDS011;15392;48.912;8.380;2024-03-02T06:18:40;0.20;;;0.20;;
28086;SDS011;15392;48.912;8.380;2024-03-02T06:21:26;0.43;;;0.43;;
28086;SDS011;15392;48.912;8.380;2024-03-02T06:24:13;7.07;;;6.20;;
28086;SDS011;15392;48.912;8.380;2024-03-02T06:26:59;6.90;;;6.20;;
28086;SDS011;15392;48.912;8.380;2024-03-02T06:29:45;3.22;;;3.03;;
28086;SDS011;15392;48.912;8.380;2024-03-02T06:32:31;1.95;;;1.85;;
28086;SDS011;15392;48.912;8.380;2024-03-02T06:35:17;1.35;;;1.02;;
28086;SDS011;15392;48.912;8.380;2024-03-02T06:38:06;0.60;;;0.60;;
28086;SDS011;15392;48.912;8.380;2024-03-02T06:40:52;0.50;;;0.50;;
28086;SDS011;15392;48.912;8.380;2024-03-02T06:43:38;0.32;;;0.32;;
28086;SDS011;15392;48.912;8.380;2024-03-02T06:46:24;0.30;;;0.30;;
28086;SDS011;15392;48.912;8.380;2024-03-02T06:49:14;0.30;;;0.30;;
28086;SDS011;15392;48.912;8.380;2024-03-02T06:52:03;0.20;;;0.20;;
28086;SDS011;15392;48.912;8.380;2024-03-02T06:54:49;0.20;;;0.20;;
28086;SDS011;15392;48.912;8.380;2024-03-02T06:57:35;0.40;;;0.40;;
28086;SDS011;15392;48.912;8.380;2024-03-02T07:00:21;0.40;;;0.40;;
28086;SDS011;15392;48.912;8.380;2024-03-02T07:03:07;0.43;;;0.43;;
28086;SDS011;15392;48.912;8.380;2024-03-02T07:05:53;0.40;;;0.40;;
28086;SDS011;15392;48.912;8.380;2024-03-02T07:08:39;0.40;;;0.40;;
28086;SDS011;15392;48.912;8.380;2024-03-02T07:11:25;0.30;;;0.30;;
28086;SDS011;15392;48.912;8.380;2024-03-02T07:14:11;0.40;;;0.40;;
28086;SDS011;15392;48.912;8.380;2024-03-02T07:16:57;0.40;;;0.40;;
28086;SDS011;15392;48.912;8.380;2024-03-02T07:19:50;0.30;;;0.30;;
28086;SDS011;15392;48.912;8.380;2024-03-02T07:22:36;0.22;;;0.22;;
28086;SDS011;15392;48.912;8.380;2024-03-02T07:25:22;0.40;;;0.40;;
28086;SDS011;15392;48.912;8.380;2024-03-02T07:28:08;0.47;;;0.47;;
28086;SDS011;15392;48.912;8.380;2024-03-02T07:30:58;0.55;;;0.55;;
28086;SDS011;15392;48.912;8.380;2024-03-02T07:33:49;0.50;;;0.50;;
28086;SDS011;15392;48.912;8.380;2024-03-02T07:36:35;0.55;;;0.55;;
28086;SDS011;15392;48.912;8.380;2024-03-02T07:39:22;0.88;;;0.88;;
28086;SDS011;15392;48.912;8.380;2024-03-02T07:42:09;5.05;;;4.57;;
28086;SDS011;15392;48.912;8.380;2024-03-02T07:44:55;8.02;;;7.20;;
28086;SDS011;15392;48.912;8.380;2024-03-02T07:47:41;10.65;;;9.15;;
28086;SDS011;15392;48.912;8.380;2024-03-02T07:50:27;9.80;;;8.77;;
28086;SDS011;15392;48.912;8.380;2024-03-02T07:53:13;7.68;;;6.93;;
28086;SDS011;15392;48.912;8.380;2024-03-02T07:56:00;6.45;;;5.95;;
28086;SDS011;15392;48.912;8.380;2024-03-02T07:58:50;4.70;;;4.40;;
28086;SDS011;15392;48.912;8.380;2024-03-02T08:01:37;3.95;;;3.70;;
28086;SDS011;15392;48.912;8.380;2024-03-02T08:04:23;8.15;;;7.05;;
28086;SDS011;15392;48.912;8.380;2024-03-02T08:07:10;7.10;;;6.40;;
28086;SDS011;15392;48.912;8.380;2024-03-02T08:09:56;4.20;;;3.90;;
28086;SDS011;15392;48.912;8.380;2024-03-02T08:12:42;2.90;;;2.70;;
28086;SDS011;15392;48.912;8.380;2024-03-02T08:15:28;1.77;;;1.67;;
28086;SDS011;15392;48.912;8.380;2024-03-02T08:18:14;1.08;;;1.08;;
28086;SDS011;15392;48.912;8.380;2024-03-02T08:21:00;0.80;;;0.80;;
28086;SDS011;15392;48.912;8.380;2024-03-02T08:23:47;0.80;;;0.80;;
28086;SDS011;15392;48.912;8.380;2024-03-02T08:26:33;0.70;;;0.70;;
28086;SDS011;15392;48.912;8.380;2024-03-02T08:29:20;1.10;;;1.10;;
28086;SDS011;15392;48.912;8.380;2024-03-02T08:32:06;7.50;;;6.55;;
28086;SDS011;15392;48.912;8.380;2024-03-02T08:34:52;6.20;;;5.60;;
28086;SDS011;15392;48.912;8.380;2024-03-02T08:37:39;3.60;;;3.30;;
28086;SDS011;15392;48.912;8.380;2024-03-02T08:40:26;2.30;;;2.20;;
28086;SDS011;15392;48.912;8.380;2024-03-02T08:43:13;1.30;;;1.30;;
28086;SDS011;15392;48.912;8.380;2024-03-02T08:45:59;1.30;;;1.20;;
28086;SDS011;15392;48.912;8.380;2024-03-02T08:48:45;0.90;;;0.90;;
28086;SDS011;15392;48.912;8.380;2024-03-02T08:51:32;0.75;;;0.75;;
28086;SDS011;15392;48.912;8.380;2024-03-02T08:54:18;0.90;;;0.90;;
28086;SDS011;15392;48.912;8.380;2024-03-02T08:57:04;0.70;;;0.70;;
28086;SDS011;15392;48.912;8.380;2024-03-02T08:59:51;0.45;;;0.45;;
28086;SDS011;15392;48.912;8.380;2024-03-02T09:02:37;0.38;;;0.38;;
28086;SDS011;15392;48.912;8.380;2024-03-02T09:05:23;0.40;;;0.40;;
28086;SDS011;15392;48.912;8.380;2024-03-02T09:08:09;0.50;;;0.50;;
28086;SDS011;15392;48.912;8.380;2024-03-02T09:10:55;0.40;;;0.40;;
28086;SDS011;15392;48.912;8.380;2024-03-02T09:13:42;0.40;;;0.40;;
28086;SDS011;15392;48.912;8.380;2024-03-02T09:16:29;0.40;;;0.40;;
28086;SDS011;15392;48.912;8.380;2024-03-02T09:19:16;1.35;;;0.68;;
28086;SDS011;15392;48.912;8.380;2024-03-02T09:22:02;0.47;;;0.47;;
28086;SDS011;15392;48.912;8.380;2024-03-02T09:24:51;1.65;;;0.52;;
28086;SDS011;15392;48.912;8.380;2024-03-02T09:27:37;0.57;;;0.40;;
28086;SDS011;15392;48.912;8.380;2024-03-02T09:30:24;0.73;;;0.73;;
28086;SDS011;15392;48.912;8.380;2024-03-02T09:33:10;0.68;;;0.68;;
28086;SDS011;15392;48.912;8.380;2024-03-02T09:35:56;0.60;;;0.60;;
28086;SDS011;15392;48.912;8.380;2024-03-02T09:38:42;0.40;;;0.40;;
28086;SDS011;15392;48.912;8.380;2024-03-02T09:41:28;0.50;;;0.50;;
28086;SDS011;15392;48.912;8.380;2024-03-02T09:44:14;0.40;;;0.40;;
28086;SDS011;15392;48.912;8.380;2024-03-02T09:47:00;0.38;;;0.38;;
28086;SDS011;15392;48.912;8.380;2024-03-02T09:49:47;0.52;;;0.52;;
28086;SDS011;15392;48.912;8.380;2024-03-02T09:52:33;1.10;;;0.40;;
28086;SDS011;15392;48.912;8.380;2024-03-02T09:55:20;0.30;;;0.30;;
28086;SDS011;15392;48.912;8.380;2024-03-02T09:58:06;0.40;;;0.40;;
28086;SDS011;15392;48.912;8.380;2024-03-02T10:00:52;0.55;;;0.55;;
28086;SDS011;15392;48.912;8.380;2024-03-02T10:03:38;0.38;;;0.38;;
28086;SDS011;15392;48.912;8.380;2024-03-02T10:06:25;0.40;;;0.40;;
28086;SDS011;15392;48.912;8.380;2024-03-02T10:09:13;0.60;;;0.60;;
28086;SDS011;15392;48.912;8.380;2024-03-02T10:12:14;0.55;;;0.45;;
28086;SDS011;15392;48.912;8.380;2024-03-02T10:15:05;0.52;;;0.52;;
28086;SDS011;15392;48.912;8.380;2024-03-02T10:17:52;0.40;;;0.40;;
28086;SDS011;15392;48.912;8.380;2024-03-02T10:20:39;0.35;;;0.35;;
28086;SDS011;15392;48.912;8.380;2024-03-02T10:23:26;0.40;;;0.40;;
28086;SDS011;15392;48.912;8.380;2024-03-02T10:26:18;0.40;;;0.40;;
28086;SDS011;15392;48.912;8.380;2024-03-02T10:29:04;0.50;;;0.50;;
28086;SDS011;15392;48.912;8.380;2024-03-02T10:31:50;0.40;;;0.40;;
28086;SDS011;15392;48.912;8.380;2024-03-02T10:34:36;0.47;;;0.47;;
28086;SDS011;15392;48.912;8.380;2024-03-02T10:37:25;0.40;;;0.40;;
28086;SDS011;15392;48.912;8.380;2024-03-02T10:40:11;0.60;;;0.50;;
28086;SDS011;15392;48.912;8.380;2024-03-02T10:42:59;0.50;;;0.50;;
28086;SDS011;15392;48.912;8.380;2024-03-02T10:45:49;0.60;;;0.60;;
28086;SDS011;15392;48.912;8.380;2024-03-02T10:48:36;0.45;;;0.45;;
28086;SDS011;15392;48.912;8.380;2024-03-02T10:51:25;1.17;;;1.17;;
28086;SDS011;15392;48.912;8.380;2024-03-02T10:54:14;1.02;;;1.02;;
28086;SDS011;15392;48.912;8.380;2024-03-02T10:57:00;0.90;;;0.90;;
28086;SDS011;15392;48.912;8.380;2024-03-02T10:59:51;0.60;;;0.60;;
28086;SDS011;15392;48.912;8.380;2024-03-02T11:02:50;0.40;;;0.40;;
28086;SDS011;15392;48.912;8.380;2024-03-02T11:05:38;0.57;;;0.57;;
28086;SDS011;15392;48.912;8.380;2024-03-02T11:11:15;0.43;;;0.43;;
28086;SDS011;15392;48.912;8.380;2024-03-02T11:14:06;0.70;;;0.70;;
28086;SDS011;15392;48.912;8.380;2024-03-02T11:16:59;0.63;;;0.63;;
28086;SDS011;15392;48.912;8.380;2024-03-02T11:19:47;0.85;;;0.68;;
28086;SDS011;15392;48.912;8.380;2024-03-02T11:22:35;0.60;;;0.60;;
28086;SDS011;15392;48.912;8.380;2024-03-02T11:25:28;0.40;;;0.40;;
28086;SDS011;15392;48.912;8.380;2024-03-02T11:28:16;0.38;;;0.38;;
28086;SDS011;15392;48.912;8.380;2024-03-02T11:31:22;0.38;;;0.38;;
28086;SDS011;15392;48.912;8.380;2024-03-02T11:34:28;0.40;;;0.40;;
28086;SDS011;15392;48.912;8.380;2024-03-02T11:37:16;0.20;;;0.20;;
28086;SDS011;15392;48.912;8.380;2024-03-02T11:40:05;0.93;;;0.43;;
28086;SDS011;15392;48.912;8.380;2024-03-02T11:42:55;0.30;;;0.30;;
28086;SDS011;15392;48.912;8.380;2024-03-02T11:45:42;0.20;;;0.20;;
28086;SDS011;15392;48.912;8.380;2024-03-02T11:48:29;0.10;;;0.10;;
28086;SDS011;15392;48.912;8.380;2024-03-02T11:51:15;0.20;;;0.20;;
28086;SDS011;15392;48.912;8.380;2024-03-02T11:54:02;0.20;;;0.20;;
28086;SDS011;15392;48.912;8.380;2024-03-02T11:56:49;0.20;;;0.20;;
28086;SDS011;15392;48.912;8.380;2024-03-02T11:59:35;0.20;;;0.20;;
28086;SDS011;15392;48.912;8.380;2024-03-02T12:02:21;0.13;;;0.13;;
28086;SDS011;15392;48.912;8.380;2024-03-02T12:05:08;0.10;;;0.10;;
28086;SDS011;15392;48.912;8.380;2024-03-02T12:07:55;1.65;;;0.10;;
28086;SDS011;15392;48.912;8.380;2024-03-02T12:10:43;0.40;;;0.20;;
28086;SDS011;15392;48.912;8.380;2024-03-02T12:13:52;0.20;;;0.20;;
28086;SDS011;15392;48.912;8.380;2024-03-02T12:16:43;0.20;;;0.20;;
28086;SDS011;15392;48.912;8.380;2024-03-02T12:19:32;0.30;;;0.30;;
28086;SDS011;15392;48.912;8.380;2024-03-02T12:22:18;0.20;;;0.20;;
28086;SDS011;15392;48.912;8.380;2024-03-02T12:25:06;0.75;;;0.10;;
28086;SDS011;15392;48.912;8.380;2024-03-02T12:27:56;0.43;;;0.40;;
28086;SDS011;15392;48.912;8.380;2024-03-02T12:30:45;0.10;;;0.10;;
28086;SDS011;15392;48.912;8.380;2024-03-02T12:33:33;0.10;;;0.10;;
28086;SDS011;15392;48.912;8.380;2024-03-02T12:36:19;0.10;;;0.10;;
28086;SDS011;15392;48.912;8.380;2024-03-02T12:39:05;0.10;;;0.10;;
28086;SDS011;15392;48.912;8.380;2024-03-02T12:41:51;0.20;;;0.20;;
28086;SDS011;15392;48.912;8.380;2024-03-02T12:44:39;0.30;;;0.22;;
28086;SDS011;15392;48.912;8.380;2024-03-02T12:47:25;0.20;;;0.20;;
28086;SDS011;15392;48.912;8.380;2024-03-02T12:50:11;0.20;;;0.20;;
28086;SDS011;15392;48.912;8.380;2024-03-02T12:52:58;0.75;;;0.40;;
28086;SDS011;15392;48.912;8.380;2024-03-02T12:55:44;0.10;;;0.10;;
28086;SDS011;15392;48.912;8.380;2024-03-02T12:58:30;0.20;;;0.20;;
28086;SDS011;15392;48.912;8.380;2024-03-02T13:01:26;0.20;;;0.20;;
28086;SDS011;15392;48.912;8.380;2024-03-02T13:04:13;0.30;;;0.30;;
28086;SDS011;15392;48.912;8.380;2024-03-02T13:06:59;0.20;;;0.20;;
28086;SDS011;15392;48.912;8.380;2024-03-02T13:09:46;0.35;;;0.35;;
28086;SDS011;15392;48.912;8.380;2024-03-02T13:12:34;0.30;;;0.30;;
28086;SDS011;15392;48.912;8.380;2024-03-02T13:15:21;0.40;;;0.40;;
28086;SDS011;15392;48.912;8.380;2024-03-02T13:18:07;0.22;;;0.22;;
28086;SDS011;15392;48.912;8.380;2024-03-02T13:20:56;0.40;;;0.40;;
28086;SDS011;15392;48.912;8.380;2024-03-02T13:23:42;0.30;;;0.30;;
28086;SDS011;15392;48.912;8.380;2024-03-02T13:26:28;0.20;;;0.20;;
28086;SDS011;15392;48.912;8.380;2024-03-02T13:29:14;0.40;;;0.40;;
28086;SDS011;15392;48.912;8.380;2024-03-02T13:32:00;0.30;;;0.30;;
28086;SDS011;15392;48.912;8.380;2024-03-02T13:34:47;0.40;;;0.40;;
28086;SDS011;15392;48.912;8.380;2024-03-02T13:37:33;0.30;;;0.30;;
28086;SDS011;15392;48.912;8.380;2024-03-02T13:40:19;0.38;;;0.38;;
28086;SDS011;15392;48.912;8.380;2024-03-02T13:43:05;0.30;;;0.30;;
28086;SDS011;15392;48.912;8.380;2024-03-02T13:45:51;0.38;;;0.38;;
28086;SDS011;15392;48.912;8.380;2024-03-02T13:48:38;0.40;;;0.40;;
28086;SDS011;15392;48.912;8.380;2024-03-02T13:51:24;0.38;;;0.38;;
28086;SDS011;15392;48.912;8.380;2024-03-02T13:54:10;0.30;;;0.30;;
28086;SDS011;15392;48.912;8.380;2024-03-02T13:56:57;0.20;;;0.20;;
28086;SDS011;15392;48.912;8.380;2024-03-02T13:59:44;0.40;;;0.40;;
28086;SDS011;15392;48.912;8.380;2024-03-02T14:02:30;0.38;;;0.38;;
28086;SDS011;15392;48.912;8.380;2024-03-02T14:05:16;0.30;;;0.30;;
28086;SDS011;15392;48.912;8.380;2024-03-02T14:08:04;0.28;;;0.28;;
28086;SDS011;15392;48.912;8.380;2024-03-02T14:10:50;0.30;;;0.30;;
28086;SDS011;15392;48.912;8.380;2024-03-02T14:13:37;0.60;;;0.60;;
28086;SDS011;15392;48.912;8.380;2024-03-02T14:16:23;0.40;;;0.40;;
28086;SDS011;15392;48.912;8.380;2024-03-02T14:19:09;0.50;;;0.50;;
28086;SDS011;15392;48.912;8.380;2024-03-02T14:21:55;0.43;;;0.43;;
28086;SDS011;15392;48.912;8.380;2024-03-02T14:24:41;0.50;;;0.50;;
28086;SDS011;15392;48.912;8.380;2024-03-02T14:27:28;0.68;;;0.68;;
28086;SDS011;15392;48.912;8.380;2024-03-02T14:30:14;0.50;;;0.50;;
28086;SDS011;15392;48.912;8.380;2024-03-02T14:33:00;0.40;;;0.40;;
28086;SDS011;15392;48.912;8.380;2024-03-02T14:35:46;0.60;;;0.60;;
28086;SDS011;15392;48.912;8.380;2024-03-02T14:38:32;0.50;;;0.50;;
28086;SDS011;15392;48.912;8.380;2024-03-02T14:41:19;2.15;;;1.10;;
28086;SDS011;15392;48.912;8.380;2024-03-02T14:44:05;0.88;;;0.65;;
28086;SDS011;15392;48.912;8.380;2024-03-02T14:46:51;0.40;;;0.40;;
28086;SDS011;15392;48.912;8.380;2024-03-02T14:49:37;0.40;;;0.40;;
28086;SDS011;15392;48.912;8.380;2024-03-02T14:52:26;0.30;;;0.30;;
28086;SDS011;15392;48.912;8.380;2024-03-02T14:55:12;0.40;;;0.40;;
28086;SDS011;15392;48.912;8.380;2024-03-02T14:57:59;0.35;;;0.35;;
28086;SDS011;15392;48.912;8.380;2024-03-02T15:00:45;0.28;;;0.28;;
28086;SDS011;15392;48.912;8.380;2024-03-02T15:03:31;0.50;;;0.50;;
28086;SDS011;15392;48.912;8.380;2024-03-02T15:06:18;1.38;;;0.57;;
28086;SDS011;15392;48.912;8.380;2024-03-02T15:09:04;0.30;;;0.30;;
28086;SDS011;15392;48.912;8.380;2024-03-02T15:11:50;0.40;;;0.40;;
28086;SDS011;15392;48.912;8.380;2024-03-02T15:14:36;0.45;;;0.45;;
28086;SDS011;15392;48.912;8.380;2024-03-02T15:17:23;0.40;;;0.40;;
28086;SDS011;15392;48.912;8.380;2024-03-02T15:20:10;0.40;;;0.40;;
28086;SDS011;15392;48.912;8.380;2024-03-02T15:22:56;0.38;;;0.38;;
28086;SDS011;15392;48.912;8.380;2024-03-02T15:25:42;0.40;;;0.40;;
28086;SDS011;15392;48.912;8.380;2024-03-02T15:28:28;0.40;;;0.40;;
28086;SDS011;15392;48.912;8.380;2024-03-02T15:31:14;0.75;;;0.75;;
28086;SDS011;15392;48.912;8.380;2024-03-02T15:34:02;0.60;;;0.60;;
28086;SDS011;15392;48.912;8.380;2024-03-02T15:36:49;0.50;;;0.50;;
28086;SDS011;15392;48.912;8.380;2024-03-02T15:39:35;0.40;;;0.40;;
28086;SDS011;15392;48.912;8.380;2024-03-02T15:42:21;0.60;;;0.60;;
28086;SDS011;15392;48.912;8.380;2024-03-02T15:45:08;0.28;;;0.28;;
28086;SDS011;15392;48.912;8.380;2024-03-02T15:47:54;0.50;;;0.50;;
28086;SDS011;15392;48.912;8.380;2024-03-02T15:50:40;0.50;;;0.50;;
28086;SDS011;15392;48.912;8.380;2024-03-02T15:53:26;0.40;;;0.40;;
28086;SDS011;15392;48.912;8.380;2024-03-02T15:56:12;0.40;;;0.40;;
28086;SDS011;15392;48.912;8.380;2024-03-02T15:58:59;0.45;;;0.45;;
28086;SDS011;15392;48.912;8.380;2024-03-02T16:01:45;0.30;;;0.30;;
28086;SDS011;15392;48.912;8.380;2024-03-02T16:04:31;0.40;;;0.40;;
28086;SDS011;15392;48.912;8.380;2024-03-02T16:07:17;0.60;;;0.60;;
28086;SDS011;15392;48.912;8.380;2024-03-02T16:10:03;0.52;;;0.52;;
28086;SDS011;15392;48.912;8.380;2024-03-02T16:12:53;0.52;;;0.52;;
28086;SDS011;15392;48.912;8.380;2024-03-02T16:15:41;0.60;;;0.60;;
28086;SDS011;15392;48.912;8.380;2024-03-02T16:18:27;0.77;;;0.77;;
28086;SDS011;15392;48.912;8.380;2024-03-02T16:21:13;1.00;;;1.00;;
28086;SDS011;15392;48.912;8.380;2024-03-02T16:23:59;1.40;;;1.40;;
28086;SDS011;15392;48.912;8.380;2024-03-02T16:26:45;1.40;;;1.30;;
28086;SDS011;15392;48.912;8.380;2024-03-02T16:29:31;0.80;;;0.80;;
28086;SDS011;15392;48.912;8.380;2024-03-02T16:32:18;0.52;;;0.52;;
28086;SDS011;15392;48.912;8.380;2024-03-02T16:35:04;0.50;;;0.50;;
28086;SDS011;15392;48.912;8.380;2024-03-02T16:37:50;0.40;;;0.40;;
28086;SDS011;15392;48.912;8.380;2024-03-02T16:40:36;0.40;;;0.40;;
28086;SDS011;15392;48.912;8.380;2024-03-02T16:43:24;0.40;;;0.40;;
28086;SDS011;15392;48.912;8.380;2024-03-02T16:46:10;0.40;;;0.40;;
28086;SDS011;15392;48.912;8.380;2024-03-02T16:48:56;0.50;;;0.50;;